Terminal Aerodrome Forecast
Issued by NWS

Home | Current Version | Previous Version | Text Only | Print | Product List | Glossary On
Versions: 1 2 3 4 5 6 7 8 9 10 11 12 13 14 15 16 17 18
775
FTUS45 KTFX 260959 AAA
TAFHVR
TAF AMD
KHVR 260959Z 2610/2706 09009KT P6SM SCT015 BKN029
     FM262100 10010KT P6SM SCT040 BKN070
     FM270400 12008KT P6SM -SHRA BKN030=

USA.gov is the U.S. government's official web portal to all federal, state and local government web resources and services.